Time;durP1;ratioP1;P1;durP2;ratioP2;P2;SDS_P1;SDS_P2;PMS_P1;PMS_P2;Temp;Humidity;BMP_temperature;BMP_pressure;BME280_temperature;BME280_humidity;BME280_pressure;Samples;Min_cycle;Max_cycle;Signal;HPM_P1;HPM_P2
2021/09/01 00:00:32;;;;;;;14.67;7.63;;;15.90;99.90;;;;;;4901459;29;20796;-78
2021/09/01 00:03:00;;;;;;;10.90;5.87;;;15.80;99.90;;;;;;4900904;29;20419;-78
2021/09/01 00:05:28;;;;;;;8.90;6.13;;;15.80;99.90;;;;;;4900704;29;20481;-78
2021/09/01 00:07:56;;;;;;;14.10;7.50;;;15.80;99.90;;;;;;4899423;29;20441;-78
2021/09/01 00:10:25;;;;;;;9.00;6.53;;;15.90;99.90;;;;;;4916263;29;20207;-78
2021/09/01 00:12:53;;;;;;;9.10;5.83;;;15.90;99.90;;;;;;4899954;29;20958;-77
2021/09/01 00:15:22;;;;;;;10.10;6.10;;;15.80;99.90;;;;;;4919085;29;20542;-78
2021/09/01 00:17:50;;;;;;;10.80;6.70;;;15.80;99.90;;;;;;4919370;29;20923;-78
2021/09/01 00:20:19;;;;;;;10.90;6.30;;;15.70;99.90;;;;;;4936980;29;20944;-78
2021/09/01 00:22:47;;;;;;;12.87;6.97;;;15.70;99.90;;;;;;4908222;29;20643;-78
2021/09/01 00:25:15;;;;;;;12.73;6.40;;;15.70;99.90;;;;;;4900336;29;20488;-78
2021/09/01 00:27:43;;;;;;;8.60;6.70;;;15.60;99.90;;;;;;4918865;29;20438;-78
2021/09/01 00:30:12;;;;;;;11.57;6.40;;;15.60;99.90;;;;;;4919379;29;20477;-78
2021/09/01 00:32:41;;;;;;;10.83;5.70;;;15.60;99.90;;;;;;4908773;29;20400;-77
2021/09/01 00:35:10;;;;;;;9.43;6.17;;;15.60;99.90;;;;;;4900268;29;20465;-78
2021/09/01 00:37:39;;;;;;;13.50;6.90;;;15.60;99.90;;;;;;4900193;29;20958;-78
2021/09/01 00:40:08;;;;;;;13.40;7.45;;;15.50;99.90;;;;;;4899127;29;20447;-78
2021/09/01 00:42:37;;;;;;;10.90;6.63;;;15.60;99.90;;;;;;4915938;29;20205;-78
2021/09/01 00:45:07;;;;;;;12.10;5.87;;;15.50;99.90;;;;;;4917207;29;20985;-78
2021/09/01 00:47:36;;;;;;;12.97;5.63;;;15.50;99.90;;;;;;4919215;29;20493;-78
2021/09/01 00:50:08;;;;;;;10.90;8.13;;;15.50;99.90;;;;;;4919007;29;20478;-78
2021/09/01 00:52:40;;;;;;;13.70;8.03;;;15.40;99.90;;;;;;4918819;29;20526;-78
2021/09/01 00:55:11;;;;;;;7.47;5.70;;;15.40;99.90;;;;;;4918951;29;20479;-78
2021/09/01 00:57:41;;;;;;;8.40;5.17;;;15.40;99.90;;;;;;4926121;29;20452;-78
2021/09/01 01:00:14;;;;;;;43.80;8.53;;;15.40;99.90;;;;;;4908968;29;20475;-78
2021/09/01 01:02:42;;;;;;;14.03;6.00;;;15.30;99.90;;;;;;4936387;29;20429;-78
2021/09/01 01:05:13;;;;;;;14.10;6.90;;;15.30;99.90;;;;;;4934988;29;20831;-78
2021/09/01 01:07:41;;;;;;;10.57;6.60;;;15.30;99.90;;;;;;4915823;29;20439;-78
2021/09/01 01:10:10;;;;;;;11.23;6.00;;;15.30;99.90;;;;;;4917308;29;20287;-78
2021/09/01 01:12:38;;;;;;;10.73;6.80;;;15.30;99.90;;;;;;4905510;29;20453;-78
2021/09/01 01:15:08;;;;;;;11.80;6.40;;;15.30;99.90;;;;;;4918783;29;20238;-78
2021/09/01 01:17:36;;;;;;;13.27;5.90;;;15.30;99.90;;;;;;4905741;29;20881;-78
2021/09/01 01:20:06;;;;;;;8.33;5.27;;;15.30;99.90;;;;;;4917753;29;20475;-78
2021/09/01 01:22:35;;;;;;;10.77;6.20;;;15.20;99.90;;;;;;4900384;29;20466;-78
2021/09/01 01:25:06;;;;;;;12.17;6.77;;;15.20;99.90;;;;;;4901461;29;20986;-78
2021/09/01 01:27:38;;;;;;;11.77;6.77;;;15.10;99.90;;;;;;4903842;29;20448;-78
2021/09/01 01:30:10;;;;;;;11.87;6.83;;;15.10;99.90;;;;;;4910579;29;20471;-78
2021/09/01 01:32:40;;;;;;;9.50;5.87;;;15.00;99.90;;;;;;4922559;29;20448;-78
2021/09/01 01:35:10;;;;;;;9.70;6.23;;;15.00;99.90;;;;;;4940039;29;20471;-78
2021/09/01 01:37:40;;;;;;;9.90;6.07;;;15.00;99.90;;;;;;4920425;29;20447;-78
2021/09/01 01:40:09;;;;;;;10.45;6.53;;;14.90;99.90;;;;;;4903866;29;20462;-78
2021/09/01 01:42:42;;;;;;;14.50;6.20;;;14.90;99.90;;;;;;4903592;29;20658;-78
2021/09/01 01:45:12;;;;;;;11.38;7.10;;;14.90;99.90;;;;;;4903167;29;20509;-78
2021/09/01 01:47:40;;;;;;;7.73;6.17;;;14.90;99.90;;;;;;4903345;29;20209;-78
2021/09/01 01:50:09;;;;;;;11.57;7.10;;;14.90;99.90;;;;;;4920694;29;20483;-78
2021/09/01 01:52:37;;;;;;;12.90;7.93;;;14.90;99.90;;;;;;4909125;29;20838;-78
2021/09/01 01:55:07;;;;;;;8.23;6.70;;;14.80;99.90;;;;;;4939558;29;20486;-78
2021/09/01 01:57:35;;;;;;;7.97;6.23;;;14.80;99.90;;;;;;4918044;29;20441;-78
2021/09/01 02:00:07;;;;;;;11.80;7.30;;;14.70;99.90;;;;;;4920665;29;20477;-78
2021/09/01 02:02:42;;;;;;;8.10;6.70;;;14.70;99.90;;;;;;4917619;29;20474;-77
2021/09/01 02:05:11;;;;;;;11.93;6.30;;;14.70;99.90;;;;;;4917188;29;20473;-78
2021/09/01 02:07:40;;;;;;;11.63;7.30;;;14.70;99.90;;;;;;4911429;29;20467;-78
2021/09/01 02:10:10;;;;;;;10.70;7.30;;;14.60;99.90;;;;;;4928038;29;20791;-78
2021/09/01 02:12:38;;;;;;;9.35;6.82;;;14.60;99.90;;;;;;4920337;29;20448;-78
2021/09/01 02:15:10;;;;;;;12.20;7.30;;;14.60;99.90;;;;;;4920023;29;20220;-78
2021/09/01 02:17:40;;;;;;;10.83;6.93;;;14.50;99.90;;;;;;4920101;29;20425;-78
2021/09/01 02:20:10;;;;;;;11.30;6.95;;;14.50;99.90;;;;;;4901875;29;20541;-78
2021/09/01 02:22:39;;;;;;;10.17;7.00;;;14.60;99.90;;;;;;4903412;29;20205;-78
2021/09/01 02:25:08;;;;;;;9.57;6.80;;;14.60;99.90;;;;;;4903213;29;20572;-78
2021/09/01 02:27:40;;;;;;;11.60;7.40;;;14.50;99.90;;;;;;4903146;29;20435;-78
2021/09/01 02:30:12;;;;;;;10.07;8.17;;;14.50;99.90;;;;;;4903276;29;20460;-78
2021/09/01 02:32:40;;;;;;;12.70;8.53;;;14.50;99.90;;;;;;4911837;29;20980;-78
2021/09/01 02:35:09;;;;;;;10.40;8.27;;;14.40;99.90;;;;;;4921637;29;20460;-78
2021/09/01 02:37:37;;;;;;;12.27;7.83;;;14.40;99.90;;;;;;4920826;29;20458;-78
2021/09/01 02:40:06;;;;;;;12.03;7.53;;;14.40;99.90;;;;;;4918134;29;20879;-78
2021/09/01 02:42:34;;;;;;;10.63;7.57;;;14.30;99.90;;;;;;4909571;29;20458;-78
2021/09/01 02:45:05;;;;;;;11.60;7.87;;;14.30;99.90;;;;;;4938631;29;20472;-78
2021/09/01 02:47:35;;;;;;;10.65;8.13;;;14.30;99.90;;;;;;4921916;29;20544;-78
2021/09/01 02:50:04;;;;;;;10.27;7.70;;;14.30;99.90;;;;;;4921693;29;20654;-78
2021/09/01 02:52:32;;;;;;;13.37;9.40;;;14.30;99.90;;;;;;4938646;29;20547;-78
2021/09/01 02:55:00;;;;;;;10.77;8.00;;;14.30;99.90;;;;;;4921555;29;20476;-78
2021/09/01 02:57:29;;;;;;;11.57;9.20;;;14.30;99.90;;;;;;4916255;29;20819;-78
2021/09/01 02:59:57;;;;;;;15.00;9.03;;;14.30;99.90;;;;;;4919359;29;20536;-78
2021/09/01 03:02:25;;;;;;;9.50;7.90;;;14.20;99.90;;;;;;4908321;29;20521;-78
2021/09/01 03:04:55;;;;;;;13.77;8.47;;;14.20;99.90;;;;;;4921098;29;20494;-78
2021/09/01 03:07:23;;;;;;;11.70;7.50;;;14.20;99.90;;;;;;4907041;29;20512;-78
2021/09/01 03:09:52;;;;;;;12.47;8.50;;;14.20;99.90;;;;;;4902330;29;20449;-78
2021/09/01 03:12:20;;;;;;;11.13;9.37;;;14.20;99.90;;;;;;4902274;29;20460;-78
2021/09/01 03:14:48;;;;;;;12.07;7.90;;;14.20;99.90;;;;;;4902039;29;20473;-78
2021/09/01 03:17:16;;;;;;;10.70;8.20;;;14.20;99.90;;;;;;4911544;29;20598;-78
2021/09/01 03:19:44;;;;;;;14.30;8.10;;;14.20;99.90;;;;;;4938431;29;20459;-78
2021/09/01 03:22:13;;;;;;;9.95;8.02;;;14.20;99.90;;;;;;4921085;29;20461;-78
2021/09/01 03:24:42;;;;;;;10.23;8.57;;;14.20;99.90;;;;;;4920691;29;20878;-78
2021/09/01 03:27:10;;;;;;;14.10;7.80;;;14.20;99.90;;;;;;4920765;29;20851;-78
2021/09/01 03:29:38;;;;;;;10.40;8.35;;;14.20;99.90;;;;;;4919454;29;20540;-77
2021/09/01 03:32:06;;;;;;;12.80;8.83;;;14.30;99.90;;;;;;4920450;29;20211;-78
2021/09/01 03:34:35;;;;;;;12.63;8.17;;;14.30;99.90;;;;;;4920502;29;20607;-78
2021/09/01 03:37:03;;;;;;;11.70;8.43;;;14.30;99.90;;;;;;4920677;29;20448;-78
2021/09/01 03:39:34;;;;;;;20.63;14.60;;;14.30;99.90;;;;;;4904702;29;20465;-78
2021/09/01 03:42:03;;;;;;;15.03;12.50;;;14.30;99.90;;;;;;4903239;29;20808;-78
2021/09/01 03:44:31;;;;;;;12.87;10.13;;;14.30;99.90;;;;;;4920526;29;20473;-78
2021/09/01 03:46:59;;;;;;;13.63;9.40;;;14.20;99.90;;;;;;4920257;29;20475;-78
2021/09/01 03:49:27;;;;;;;9.17;8.23;;;14.30;99.90;;;;;;4919205;29;20466;-78
2021/09/01 03:51:55;;;;;;;13.30;9.50;;;14.20;99.90;;;;;;4918968;29;20460;-78
2021/09/01 03:54:23;;;;;;;18.10;11.67;;;14.30;99.90;;;;;;4920121;29;20467;-78
2021/09/01 03:56:53;;;;;;;11.93;8.87;;;14.30;99.90;;;;;;4907104;29;20981;-78
2021/09/01 03:59:21;;;;;;;13.82;9.65;;;14.30;99.90;;;;;;4918727;29;20946;-78
2021/09/01 04:01:49;;;;;;;9.27;7.80;;;14.30;99.90;;;;;;4920092;29;20204;-78
2021/09/01 04:04:18;;;;;;;12.43;9.30;;;14.40;99.90;;;;;;4919408;29;20457;-78
2021/09/01 04:06:47;;;;;;;12.33;9.47;;;14.50;99.90;;;;;;4919778;29;20600;-78
2021/09/01 04:09:16;;;;;;;13.17;8.23;;;14.40;99.90;;;;;;4937402;29;20448;-78
2021/09/01 04:11:44;;;;;;;11.50;8.83;;;14.40;99.90;;;;;;4919749;29;20459;-78
2021/09/01 04:14:13;;;;;;;11.93;7.80;;;14.40;99.90;;;;;;4936911;29;20467;-78
2021/09/01 04:16:41;;;;;;;11.63;8.03;;;14.40;99.90;;;;;;4919102;29;20455;-78
2021/09/01 04:19:10;;;;;;;13.93;8.10;;;14.30;99.90;;;;;;4910917;29;20828;-78
2021/09/01 04:21:38;;;;;;;13.03;9.13;;;14.40;99.90;;;;;;4933460;29;20543;-78
2021/09/01 04:24:06;;;;;;;11.60;9.23;;;14.30;99.90;;;;;;4918474;29;20442;-78
2021/09/01 04:26:34;;;;;;;12.13;8.17;;;14.30;99.90;;;;;;4918272;29;20954;-78
2021/09/01 04:29:02;;;;;;;13.20;9.40;;;14.40;99.90;;;;;;4917631;29;20500;-78
2021/09/01 04:31:32;;;;;;;13.37;8.37;;;14.30;99.90;;;;;;4900603;29;20457;-78
2021/09/01 04:34:00;;;;;;;11.35;8.50;;;14.40;99.90;;;;;;4900084;29;20820;-78
2021/09/01 04:36:28;;;;;;;10.63;7.93;;;14.40;99.90;;;;;;4900577;29;20570;-78
2021/09/01 04:38:56;;;;;;;11.83;8.03;;;14.40;99.90;;;;;;4900820;29;20520;-78
2021/09/01 04:41:25;;;;;;;13.13;8.73;;;14.30;99.90;;;;;;4900388;29;20453;-78
2021/09/01 04:43:53;;;;;;;12.23;9.50;;;14.30;99.90;;;;;;4916906;29;20501;-78
2021/09/01 04:46:21;;;;;;;8.70;7.77;;;14.30;99.90;;;;;;4917657;29;20449;-77
2021/09/01 04:48:51;;;;;;;13.13;8.20;;;14.30;99.90;;;;;;4920752;29;20472;-79
2021/09/01 04:51:19;;;;;;;9.63;8.27;;;14.40;99.90;;;;;;4920493;29;20462;-79
2021/09/01 04:53:47;;;;;;;15.47;8.93;;;14.30;99.90;;;;;;4904049;29;20491;-79
2021/09/01 04:56:15;;;;;;;11.60;8.30;;;14.30;99.90;;;;;;4904851;29;20977;-79
2021/09/01 04:58:43;;;;;;;13.30;8.70;;;14.30;99.90;;;;;;4904479;29;20461;-79
2021/09/01 05:01:11;;;;;;;13.53;8.07;;;14.30;99.90;;;;;;4907384;29;20893;-79
2021/09/01 05:03:41;;;;;;;12.97;9.23;;;14.30;99.90;;;;;;4942289;29;20511;-79
2021/09/01 05:06:10;;;;;;;12.73;8.40;;;14.30;99.90;;;;;;4926985;29;20973;-79
2021/09/01 05:08:38;;;;;;;12.88;8.50;;;14.30;99.90;;;;;;4926770;29;20457;-79
2021/09/01 05:11:06;;;;;;;14.90;9.53;;;14.30;99.90;;;;;;4926762;29;20549;-79
2021/09/01 05:13:36;;;;;;;10.17;7.80;;;14.30;99.90;;;;;;4915319;29;20489;-79
2021/09/01 05:16:05;;;;;;;16.20;9.18;;;14.30;99.90;;;;;;4908514;29;20513;-80
2021/09/01 05:18:35;;;;;;;14.10;9.30;;;14.40;99.90;;;;;;4940650;29;20204;-80
2021/09/01 05:21:06;;;;;;;18.67;8.97;;;14.40;99.90;;;;;;4928542;29;20487;-80
2021/09/01 05:23:36;;;;;;;10.90;8.27;;;14.40;99.90;;;;;;4912648;29;20981;-80
2021/09/01 05:26:06;;;;;;;13.07;8.57;;;14.40;99.90;;;;;;4909944;29;20462;-80
2021/09/01 05:28:36;;;;;;;13.73;8.23;;;14.40;99.90;;;;;;4910513;29;20478;-78
2021/09/01 05:31:07;;;;;;;11.57;8.07;;;14.40;99.90;;;;;;4910694;29;20449;-79
2021/09/01 05:33:39;;;;;;;12.97;7.73;;;14.50;99.90;;;;;;4927940;29;20484;-79
2021/09/01 05:36:08;;;;;;;11.93;8.60;;;14.40;99.90;;;;;;4910602;29;20445;-79
2021/09/01 05:38:38;;;;;;;16.40;9.47;;;14.50;99.90;;;;;;4909908;29;20515;-79
2021/09/01 05:41:06;;;;;;;9.10;8.03;;;14.50;99.90;;;;;;4910479;29;20447;-79
2021/09/01 05:43:35;;;;;;;43.87;10.23;;;14.50;99.90;;;;;;4910563;29;20471;-79
2021/09/01 05:46:03;;;;;;;13.90;8.45;;;14.50;99.90;;;;;;4910033;29;20482;-78
2021/09/01 05:48:34;;;;;;;12.93;8.13;;;14.60;99.90;;;;;;4910564;29;20220;-79
2021/09/01 05:51:03;;;;;;;13.82;8.63;;;14.60;99.90;;;;;;4909556;29;20482;-79
2021/09/01 05:53:32;;;;;;;14.83;8.93;;;14.60;99.90;;;;;;4909424;29;20228;-79
2021/09/01 05:56:07;;;;;;;13.23;7.97;;;14.70;99.90;;;;;;4910180;29;20456;-79
2021/09/01 05:58:39;;;;;;;16.53;10.30;;;14.70;99.90;;;;;;4909170;29;20949;-78
2021/09/01 06:01:08;;;;;;;17.97;10.53;;;14.70;99.90;;;;;;4927226;29;20490;-78
2021/09/01 06:03:42;;;;;;;16.63;10.13;;;14.70;99.90;;;;;;4908590;29;20839;-78
2021/09/01 06:06:15;;;;;;;43.73;11.17;;;14.70;99.90;;;;;;4908520;29;20856;-78
2021/09/01 06:08:47;;;;;;;16.00;9.30;;;14.80;99.90;;;;;;4924712;29;20468;-78
2021/09/01 06:11:23;;;;;;;12.57;8.67;;;14.80;99.90;;;;;;4924364;29;20460;-78
2021/09/01 06:13:52;;;;;;;12.80;8.27;;;14.90;99.90;;;;;;4908589;29;20559;-78
2021/09/01 06:16:20;;;;;;;10.83;9.13;;;14.90;99.90;;;;;;4908546;29;20520;-78
2021/09/01 06:18:49;;;;;;;13.37;9.33;;;15.00;99.90;;;;;;4926373;29;20857;-78
2021/09/01 06:21:18;;;;;;;11.90;8.73;;;15.00;99.90;;;;;;4909106;29;20445;-78
2021/09/01 06:23:47;;;;;;;11.90;8.57;;;15.10;99.90;;;;;;4909830;29;20476;-78
2021/09/01 06:26:17;;;;;;;15.73;13.33;;;15.10;99.90;;;;;;4910344;29;20438;-78
2021/09/01 06:28:46;;;;;;;12.07;9.00;;;15.20;99.90;;;;;;4926106;29;20435;-79
2021/09/01 06:31:14;;;;;;;28.77;26.37;;;15.20;99.90;;;;;;4908681;29;20452;-79
2021/09/01 06:33:43;;;;;;;27.23;25.03;;;15.20;99.90;;;;;;4908867;29;20571;-78
2021/09/01 06:36:11;;;;;;;39.23;36.07;;;15.30;99.90;;;;;;4908660;29;20543;-78
2021/09/01 06:38:42;;;;;;;32.50;29.83;;;15.30;99.90;;;;;;4908935;29;20461;-79
2021/09/01 06:41:10;;;;;;;57.63;27.27;;;15.30;99.90;;;;;;4908653;29;20432;-78
2021/09/01 06:43:40;;;;;;;13.83;11.60;;;15.30;99.90;;;;;;4925282;29;20465;-79
2021/09/01 06:46:08;;;;;;;33.40;30.40;;;15.40;99.90;;;;;;4908111;29;20492;-79
2021/09/01 06:48:37;;;;;;;22.13;18.80;;;15.40;99.90;;;;;;4907783;29;20472;-78
2021/09/01 06:51:05;;;;;;;17.23;10.10;;;15.50;99.90;;;;;;4908788;29;20525;-79
2021/09/01 06:53:34;;;;;;;14.17;8.77;;;15.50;99.90;;;;;;4907957;29;20541;-79
2021/09/01 06:56:02;;;;;;;15.50;9.50;;;15.60;99.90;;;;;;4907908;29;20459;-79
2021/09/01 06:58:44;;;;;;;14.88;8.75;;;15.60;99.90;;;;;;4906703;29;20453;-78
2021/09/01 07:01:12;;;;;;;12.37;7.93;;;15.70;99.90;;;;;;4908293;29;20481;-79
2021/09/01 07:03:40;;;;;;;14.48;8.65;;;15.80;99.90;;;;;;4924240;29;20510;-79
2021/09/01 07:06:09;;;;;;;12.63;7.60;;;15.90;99.90;;;;;;4907847;29;20295;-79
2021/09/01 07:08:37;;;;;;;13.83;8.57;;;15.90;99.90;;;;;;4907833;29;20477;-78
2021/09/01 07:11:05;;;;;;;11.27;7.50;;;15.90;99.90;;;;;;4906562;29;20452;-78
2021/09/01 07:13:34;;;;;;;14.00;7.63;;;16.00;99.90;;;;;;4902547;29;20447;-77
2021/09/01 07:16:08;;;;;;;10.90;8.07;;;16.00;99.90;;;;;;4918887;29;20407;-75
2021/09/01 07:18:38;;;;;;;11.80;7.50;;;16.00;99.90;;;;;;4924264;29;20419;-78
2021/09/01 07:21:07;;;;;;;15.53;9.00;;;16.10;99.90;;;;;;4924721;29;20423;-79
2021/09/01 07:23:35;;;;;;;12.70;7.60;;;16.10;99.90;;;;;;4907811;29;20533;-79
2021/09/01 07:26:04;;;;;;;16.80;10.17;;;16.20;99.90;;;;;;4924739;29;20423;-79
2021/09/01 07:28:34;;;;;;;16.60;7.97;;;16.20;99.90;;;;;;4907246;29;20682;-78
2021/09/01 07:31:02;;;;;;;15.23;9.70;;;16.20;99.90;;;;;;4907093;29;20429;-78
2021/09/01 07:33:32;;;;;;;15.93;8.00;;;16.30;99.90;;;;;;4907950;29;20446;-78
2021/09/01 07:36:01;;;;;;;24.13;9.27;;;16.30;99.90;;;;;;4907374;29;20499;-78
2021/09/01 07:38:29;;;;;;;12.50;7.93;;;16.40;99.90;;;;;;4924597;29;20437;-79
2021/09/01 07:40:57;;;;;;;17.97;10.90;;;16.40;99.90;;;;;;4907502;29;20547;-79
2021/09/01 07:43:27;;;;;;;16.70;8.30;;;16.50;99.90;;;;;;4907652;29;20482;-78
2021/09/01 07:45:55;;;;;;;16.03;8.10;;;16.50;99.90;;;;;;4920149;29;20446;-76
2021/09/01 07:48:24;;;;;;;12.47;7.90;;;16.60;99.90;;;;;;4900960;29;20453;-78
2021/09/01 07:50:54;;;;;;;10.93;7.63;;;16.60;99.90;;;;;;4900809;29;20454;-77
2021/09/01 07:53:22;;;;;;;10.30;8.57;;;16.70;99.90;;;;;;4901003;29;20481;-77
2021/09/01 07:55:50;;;;;;;14.87;8.60;;;16.80;99.90;;;;;;4900908;29;20477;-77
2021/09/01 07:58:18;;;;;;;17.47;7.80;;;16.90;99.90;;;;;;4917802;29;20450;-78
2021/09/01 08:00:47;;;;;;;17.30;7.80;;;17.00;99.90;;;;;;4900886;29;20551;-78
2021/09/01 08:03:15;;;;;;;12.83;8.03;;;17.00;99.90;;;;;;4900586;29;20477;-78
2021/09/01 08:05:45;;;;;;;11.23;7.43;;;17.10;99.90;;;;;;4917509;29;20515;-77
2021/09/01 08:08:14;;;;;;;12.85;7.20;;;17.20;99.90;;;;;;4916912;29;20441;-78
2021/09/01 08:10:42;;;;;;;9.83;6.57;;;17.30;99.90;;;;;;4900002;29;20314;-78
2021/09/01 08:13:10;;;;;;;10.03;7.23;;;17.30;99.90;;;;;;4916158;29;20470;-77
2021/09/01 08:15:38;;;;;;;10.17;7.00;;;17.40;99.90;;;;;;4900457;29;20816;-78
2021/09/01 08:18:07;;;;;;;14.43;7.03;;;17.50;99.90;;;;;;4900477;29;20437;-77
2021/09/01 08:20:35;;;;;;;8.00;6.93;;;17.50;99.90;;;;;;4917858;29;20543;-77
2021/09/01 08:23:04;;;;;;;10.50;7.00;;;17.60;99.90;;;;;;4917322;29;20451;-77
2021/09/01 08:25:33;;;;;;;11.80;6.50;;;17.60;99.90;;;;;;4900351;29;20482;-77
2021/09/01 08:28:02;;;;;;;13.00;7.80;;;17.70;99.90;;;;;;4900622;29;20486;-78
2021/09/01 08:30:30;;;;;;;12.27;6.70;;;17.80;99.90;;;;;;4917552;29;20461;-78
2021/09/01 08:32:58;;;;;;;9.70;6.40;;;17.90;99.90;;;;;;4917500;29;20463;-78
2021/09/01 08:35:27;;;;;;;11.33;6.53;;;18.00;99.90;;;;;;4916857;29;20453;-77
2021/09/01 08:37:55;;;;;;;10.10;6.17;;;18.10;99.90;;;;;;4900067;29;20457;-78
2021/09/01 08:40:23;;;;;;;8.37;6.07;;;18.10;99.90;;;;;;4917163;29;20460;-77
2021/09/01 08:42:53;;;;;;;12.53;5.67;;;18.10;99.90;;;;;;4917367;29;20446;-77
2021/09/01 08:45:22;;;;;;;8.30;6.60;;;18.10;99.90;;;;;;4900022;29;20962;-78
2021/09/01 08:47:53;;;;;;;10.43;6.30;;;18.10;99.90;;;;;;4917094;29;20462;-78
2021/09/01 08:50:21;;;;;;;10.43;6.90;;;18.10;99.90;;;;;;4900597;29;20220;-78
2021/09/01 08:52:49;;;;;;;10.40;6.40;;;18.10;99.90;;;;;;4899943;29;20464;-78
2021/09/01 08:55:19;;;;;;;10.10;5.93;;;18.20;99.90;;;;;;4900056;29;20947;-78
2021/09/01 08:57:47;;;;;;;12.30;6.30;;;18.20;99.90;;;;;;4900165;29;20453;-78
2021/09/01 09:00:17;;;;;;;10.90;6.23;;;18.20;99.90;;;;;;4899946;29;20499;-77
2021/09/01 09:02:56;;;;;;;9.80;5.93;;;18.30;99.90;;;;;;4917101;29;20492;-78
2021/09/01 09:05:33;;;;;;;10.20;5.53;;;18.30;99.90;;;;;;4917264;29;20441;-77
2021/09/01 09:08:01;;;;;;;8.23;4.17;;;18.30;99.90;;;;;;4899987;29;20503;-78
2021/09/01 09:10:33;;;;;;;8.80;5.80;;;18.30;99.90;;;;;;4899970;29;20480;-78
2021/09/01 09:13:03;;;;;;;10.30;6.13;;;18.30;99.90;;;;;;4900064;29;20946;-77
2021/09/01 09:15:34;;;;;;;11.98;6.68;;;18.30;99.90;;;;;;4899799;29;20458;-77
2021/09/01 09:18:03;;;;;;;12.37;7.63;;;18.40;99.90;;;;;;4916981;29;20283;-78
2021/09/01 09:20:33;;;;;;;15.40;7.03;;;18.60;99.90;;;;;;4899994;29;20547;-77
2021/09/01 09:23:05;;;;;;;9.35;5.25;;;18.80;99.90;;;;;;4899533;29;20497;-77
2021/09/01 09:25:34;;;;;;;12.37;6.40;;;19.00;99.90;;;;;;4899833;29;20195;-77
2021/09/01 09:28:05;;;;;;;10.20;5.17;;;19.10;99.90;;;;;;4899850;29;20441;-77
2021/09/01 09:30:41;;;;;;;8.60;7.00;;;19.20;99.90;;;;;;4899866;29;20468;-77
2021/09/01 09:33:13;;;;;;;11.73;5.53;;;19.30;99.90;;;;;;4899764;29;20476;-77
2021/09/01 09:35:53;;;;;;;12.17;7.90;;;19.40;99.90;;;;;;4917076;29;20508;-77
2021/09/01 09:38:34;;;;;;;7.53;5.60;;;19.50;99.90;;;;;;4899777;29;20878;-77
2021/09/01 09:41:04;;;;;;;7.80;6.13;;;19.60;99.90;;;;;;4899974;29;20449;-76
2021/09/01 09:43:32;;;;;;;11.47;5.70;;;19.60;99.90;;;;;;4899614;29;20475;-77
2021/09/01 09:46:10;;;;;;;10.20;6.43;;;19.60;99.90;;;;;;4900992;29;20495;-77
2021/09/01 09:48:40;;;;;;;9.65;6.28;;;19.60;99.90;;;;;;4920245;29;20439;-78
2021/09/01 09:51:10;;;;;;;9.47;5.90;;;19.60;99.90;;;;;;4903186;29;20589;-78
2021/09/01 09:53:40;;;;;;;10.33;6.73;;;19.60;99.90;;;;;;4903365;29;20480;-77
2021/09/01 09:56:18;;;;;;;10.60;6.40;;;19.60;99.90;;;;;;4919462;29;20458;-77
2021/09/01 09:58:48;;;;;;;8.43;6.20;;;19.70;99.90;;;;;;4902970;29;20974;-77
2021/09/01 10:01:18;;;;;;;11.23;5.43;;;19.60;99.90;;;;;;4902761;29;20453;-77
2021/09/01 10:03:48;;;;;;;12.27;5.70;;;19.70;99.90;;;;;;4919883;29;20464;-77
2021/09/01 10:06:18;;;;;;;9.67;5.90;;;19.80;99.90;;;;;;4919645;29;20544;-78
2021/09/01 10:08:47;;;;;;;9.03;5.93;;;19.80;99.90;;;;;;4919708;29;20544;-77
2021/09/01 10:11:19;;;;;;;9.17;6.03;;;19.90;99.90;;;;;;4902677;29;20476;-77
2021/09/01 10:13:49;;;;;;;9.00;5.93;;;20.00;99.90;;;;;;4920645;29;20856;-77
2021/09/01 10:16:28;;;;;;;10.73;6.37;;;20.10;99.90;;;;;;4919781;29;20495;-78
2021/09/01 10:19:07;;;;;;;12.17;6.67;;;20.20;99.90;;;;;;4902594;29;20930;-77
2021/09/01 10:21:38;;;;;;;12.15;6.00;;;20.30;99.90;;;;;;4902025;29;20454;-77
2021/09/01 10:24:22;;;;;;;11.87;6.17;;;20.40;99.90;;;;;;4902450;29;20283;-77
2021/09/01 10:27:09;;;;;;;11.20;7.20;;;20.40;99.90;;;;;;4902347;29;20463;-77
2021/09/01 10:29:39;;;;;;;10.00;5.40;;;20.40;99.90;;;;;;4919124;29;20195;-78
2021/09/01 10:32:24;;;;;;;10.90;6.70;;;20.50;99.90;;;;;;4920559;29;20570;-77
2021/09/01 10:35:27;;;;;;;17.67;8.33;;;20.50;99.90;;;;;;4937211;29;20463;-77
2021/09/01 10:37:58;;;;;;;10.70;5.90;;;20.50;99.90;;;;;;4921120;29;20459;-77
2021/09/01 10:40:55;;;;;;;8.20;5.70;;;20.50;99.90;;;;;;4921110;29;20458;-77
2021/09/01 10:43:24;;;;;;;10.77;6.10;;;20.50;99.90;;;;;;4938449;29;20502;-77
2021/09/01 10:45:57;;;;;;;9.10;6.43;;;20.50;99.90;;;;;;4921160;29;20451;-77
2021/09/01 10:48:28;;;;;;;7.60;5.67;;;20.60;99.90;;;;;;4921011;29;20973;-77
2021/09/01 10:50:56;;;;;;;12.30;5.90;;;20.70;99.90;;;;;;4920812;29;20549;-77
2021/09/01 10:53:26;;;;;;;10.90;6.60;;;20.70;99.90;;;;;;4937242;29;20796;-77
2021/09/01 10:56:04;;;;;;;7.97;6.80;;;20.70;99.90;;;;;;4937992;29;20837;-77
2021/09/01 10:58:42;;;;;;;12.00;6.87;;;20.80;99.90;;;;;;4937200;29;20456;-77
2021/09/01 11:01:13;;;;;;;8.33;6.40;;;20.80;99.90;;;;;;4920850;29;20539;-77
2021/09/01 11:03:48;;;;;;;12.70;7.87;;;20.80;99.90;;;;;;4937661;29;20994;-77
2021/09/01 11:06:22;;;;;;;11.33;8.27;;;20.90;99.90;;;;;;4920541;29;20463;-76
2021/09/01 11:09:04;;;;;;;9.47;7.63;;;20.90;99.90;;;;;;4920640;29;20446;-77
2021/09/01 11:11:43;;;;;;;10.10;8.10;;;20.90;99.90;;;;;;4937450;29;20997;-77
2021/09/01 11:14:12;;;;;;;9.80;7.67;;;20.90;99.90;;;;;;4920368;29;20479;-77
2021/09/01 11:16:40;;;;;;;11.87;7.87;;;20.80;99.90;;;;;;4937514;29;20538;-76
2021/09/01 11:19:11;;;;;;;15.83;8.70;;;20.80;99.90;;;;;;4937458;29;20534;-77
2021/09/01 11:21:44;;;;;;;9.20;8.20;;;20.80;99.90;;;;;;4920439;29;20870;-77
2021/09/01 11:24:14;;;;;;;13.20;7.28;;;20.80;99.90;;;;;;4919920;29;20840;-77
2021/09/01 11:26:42;;;;;;;10.67;6.60;;;20.80;99.90;;;;;;4921419;29;20215;-78
2021/09/01 11:29:11;;;;;;;11.93;6.40;;;20.80;99.90;;;;;;4939120;29;20507;-79
2021/09/01 11:31:44;;;;;;;12.52;7.00;;;20.90;99.90;;;;;;4919637;29;20454;-78
2021/09/01 11:34:15;;;;;;;45.23;14.30;;;21.10;99.90;;;;;;4921015;29;20230;-78
2021/09/01 11:36:46;;;;;;;38.30;18.03;;;21.10;99.90;;;;;;4938316;29;20516;-79
2021/09/01 11:39:16;;;;;;;21.30;12.60;;;21.10;99.90;;;;;;4921279;29;20458;-79
2021/09/01 11:41:45;;;;;;;18.63;10.33;;;21.10;99.90;;;;;;4938670;29;20778;-79
2021/09/01 11:44:14;;;;;;;9.10;6.37;;;21.20;99.90;;;;;;4920918;29;20909;-79
2021/09/01 11:46:42;;;;;;;10.23;6.37;;;21.20;99.90;;;;;;4922036;29;20455;-78
2021/09/01 11:49:13;;;;;;;12.53;6.53;;;21.20;99.90;;;;;;4920415;29;20945;-78
2021/09/01 11:51:44;;;;;;;8.57;6.63;;;21.20;99.90;;;;;;4920455;29;20518;-78
2021/09/01 11:54:14;;;;;;;9.20;6.27;;;21.30;99.90;;;;;;4920684;29;20582;-78
2021/09/01 11:56:52;;;;;;;9.80;5.83;;;21.40;99.90;;;;;;4920906;29;20933;-79
2021/09/01 11:59:20;;;;;;;8.47;6.23;;;21.40;99.90;;;;;;4919712;29;20451;-78
2021/09/01 12:01:51;;;;;;;6.88;5.40;;;21.50;99.90;;;;;;4919623;29;21017;-78
2021/09/01 12:04:22;;;;;;;10.50;5.97;;;21.50;99.90;;;;;;4919390;29;20220;-78
2021/09/01 12:07:11;;;;;;;8.60;5.10;;;21.60;99.90;;;;;;4919536;29;20455;-78
2021/09/01 12:09:40;;;;;;;9.43;6.60;;;21.60;99.90;;;;;;4919378;29;20511;-78
2021/09/01 12:12:15;;;;;;;8.10;6.47;;;21.60;99.90;;;;;;4919997;29;20489;-77
2021/09/01 12:14:43;;;;;;;9.20;5.77;;;21.70;99.90;;;;;;4919739;29;20473;-78
2021/09/01 12:17:19;;;;;;;11.00;5.77;;;21.70;99.90;;;;;;4920624;29;20568;-78
2021/09/01 12:19:51;;;;;;;11.37;5.67;;;21.80;99.90;;;;;;4919642;29;20444;-78
2021/09/01 12:22:30;;;;;;;8.87;6.20;;;21.80;99.90;;;;;;4919461;29;20451;-78
2021/09/01 12:25:07;;;;;;;9.77;5.75;;;21.90;99.90;;;;;;4919057;29;20471;-77
2021/09/01 12:27:36;;;;;;;7.30;6.03;;;22.00;99.90;;;;;;4919453;29;20188;-78
2021/09/01 12:30:07;;;;;;;8.40;6.20;;;22.10;99.90;;;;;;4919328;29;20456;-77
2021/09/01 12:32:35;;;;;;;15.18;6.40;;;22.10;99.90;;;;;;4918407;29;20467;-77
2021/09/01 12:35:09;;;;;;;9.90;6.20;;;22.20;99.90;;;;;;4919677;29;20685;-78
2021/09/01 12:37:39;;;;;;;6.80;6.00;;;22.30;99.90;;;;;;4920747;29;20456;-79
2021/09/01 12:40:09;;;;;;;8.20;5.83;;;22.30;99.90;;;;;;4919937;29;20456;-78
2021/09/01 12:42:40;;;;;;;11.60;7.10;;;22.30;99.90;;;;;;4919356;29;20446;-78
2021/09/01 12:45:10;;;;;;;9.53;6.00;;;22.40;99.90;;;;;;4919395;29;21030;-78
2021/09/01 12:47:53;;;;;;;9.70;6.47;;;22.40;99.90;;;;;;4936229;29;20963;-78
2021/09/01 12:50:29;;;;;;;6.53;5.80;;;22.40;99.90;;;;;;4919257;29;20448;-78
2021/09/01 12:52:58;;;;;;;7.83;6.00;;;22.40;99.90;;;;;;4918922;29;20920;-78